sensor_id;sensor_type;location;lat;lon;timestamp;pressure;altitude;pressure_sealevel;temperature;humidity
55466;BME280;41329;41.594;23.810;2023-07-13T00:02:06;95588.56;;;24.98;56.32
55466;BME280;41329;41.594;23.810;2023-07-13T00:04:31;95581.91;;;24.92;56.18
55466;BME280;41329;41.594;23.810;2023-07-13T00:06:57;95575.72;;;24.72;56.60
55466;BME280;41329;41.594;23.810;2023-07-13T00:09:22;95589.34;;;24.64;56.95
55466;BME280;41329;41.594;23.810;2023-07-13T00:11:55;95598.63;;;24.65;57.54
55466;BME280;41329;41.594;23.810;2023-07-13T00:14:21;95576.78;;;24.53;57.24
55466;BME280;41329;41.594;23.810;2023-07-13T00:16:47;95582.75;;;24.55;57.51
55466;BME280;41329;41.594;23.810;2023-07-13T00:19:12;95591.16;;;24.58;57.41
55466;BME280;41329;41.594;23.810;2023-07-13T00:21:41;95580.28;;;24.44;57.41
55466;BME280;41329;41.594;23.810;2023-07-13T00:24:08;95584.06;;;24.41;57.62
55466;BME280;41329;41.594;23.810;2023-07-13T00:26:38;95597.16;;;24.35;57.66
55466;BME280;41329;41.594;23.810;2023-07-13T00:29:04;95588.94;;;24.28;57.71
55466;BME280;41329;41.594;23.810;2023-07-13T00:31:31;95576.59;;;24.22;57.89
55466;BME280;41329;41.594;23.810;2023-07-13T00:33:56;95584.75;;;24.20;58.49
55466;BME280;41329;41.594;23.810;2023-07-13T00:36:22;95570.84;;;24.13;58.13
55466;BME280;41329;41.594;23.810;2023-07-13T00:38:47;95562.94;;;24.08;58.17
55466;BME280;41329;41.594;23.810;2023-07-13T00:41:13;95582.03;;;24.17;58.32
55466;BME280;41329;41.594;23.810;2023-07-13T00:43:40;95569.84;;;24.07;58.44
55466;BME280;41329;41.594;23.810;2023-07-13T00:46:13;95578.53;;;24.13;58.78
55466;BME280;41329;41.594;23.810;2023-07-13T00:48:41;95578.66;;;24.09;58.28
55466;BME280;41329;41.594;23.810;2023-07-13T00:51:09;95587.69;;;24.04;58.61
55466;BME280;41329;41.594;23.810;2023-07-13T00:53:36;95575.03;;;23.96;58.70
55466;BME280;41329;41.594;23.810;2023-07-13T00:56:02;95583.97;;;23.95;59.21
55466;BME280;41329;41.594;23.810;2023-07-13T00:58:29;95578.44;;;23.91;59.44
55466;BME280;41329;41.594;23.810;2023-07-13T01:00:54;95579.66;;;23.90;59.59
55466;BME280;41329;41.594;23.810;2023-07-13T01:03:20;95575.22;;;23.89;59.56
55466;BME280;41329;41.594;23.810;2023-07-13T01:05:48;95568.78;;;23.89;59.19
55466;BME280;41329;41.594;23.810;2023-07-13T01:08:15;95565.97;;;23.89;59.26
55466;BME280;41329;41.594;23.810;2023-07-13T01:10:41;95565.28;;;23.85;58.92
55466;BME280;41329;41.594;23.810;2023-07-13T01:13:08;95557.81;;;23.78;59.37
55466;BME280;41329;41.594;23.810;2023-07-13T01:15:38;95557.59;;;23.73;59.31
55466;BME280;41329;41.594;23.810;2023-07-13T01:18:13;95581.00;;;23.86;59.32
55466;BME280;41329;41.594;23.810;2023-07-13T01:20:39;95584.25;;;23.84;59.59
55466;BME280;41329;41.594;23.810;2023-07-13T01:23:10;95582.34;;;23.81;59.39
55466;BME280;41329;41.594;23.810;2023-07-13T01:25:38;95590.50;;;23.79;59.15
55466;BME280;41329;41.594;23.810;2023-07-13T01:28:04;95578.13;;;23.73;58.99
55466;BME280;41329;41.594;23.810;2023-07-13T01:30:29;95581.78;;;23.74;59.62
55466;BME280;41329;41.594;23.810;2023-07-13T01:32:56;95568.88;;;23.60;59.57
55466;BME280;41329;41.594;23.810;2023-07-13T01:35:21;95579.84;;;23.71;59.88
55466;BME280;41329;41.594;23.810;2023-07-13T01:37:47;95586.06;;;23.66;59.53
55466;BME280;41329;41.594;23.810;2023-07-13T01:40:12;95586.63;;;23.61;59.75
55466;BME280;41329;41.594;23.810;2023-07-13T01:42:38;95580.41;;;23.53;60.14
55466;BME280;41329;41.594;23.810;2023-07-13T01:45:04;95579.72;;;23.49;59.83
55466;BME280;41329;41.594;23.810;2023-07-13T01:47:30;95583.88;;;23.45;60.07
55466;BME280;41329;41.594;23.810;2023-07-13T01:49:57;95583.28;;;23.37;59.88
55466;BME280;41329;41.594;23.810;2023-07-13T01:52:23;95587.56;;;23.29;60.29
55466;BME280;41329;41.594;23.810;2023-07-13T01:54:48;95592.28;;;23.20;60.33
55466;BME280;41329;41.594;23.810;2023-07-13T01:57:14;95592.91;;;23.11;60.87
55466;BME280;41329;41.594;23.810;2023-07-13T01:59:39;95590.97;;;23.08;60.95
55466;BME280;41329;41.594;23.810;2023-07-13T02:02:04;95596.28;;;23.06;61.33
55466;BME280;41329;41.594;23.810;2023-07-13T02:04:30;95597.94;;;23.03;61.11
55466;BME280;41329;41.594;23.810;2023-07-13T02:06:55;95601.69;;;23.01;60.78
55466;BME280;41329;41.594;23.810;2023-07-13T02:09:21;95602.19;;;22.95;61.35
55466;BME280;41329;41.594;23.810;2023-07-13T02:11:46;95601.28;;;22.86;61.11
55466;BME280;41329;41.594;23.810;2023-07-13T02:14:12;95609.38;;;22.84;61.78
55466;BME280;41329;41.594;23.810;2023-07-13T02:16:37;95608.22;;;22.81;61.85
55466;BME280;41329;41.594;23.810;2023-07-13T02:19:02;95604.44;;;22.72;61.97
55466;BME280;41329;41.594;23.810;2023-07-13T02:21:28;95603.69;;;22.71;62.21
55466;BME280;41329;41.594;23.810;2023-07-13T02:23:54;95602.97;;;22.67;62.41
55466;BME280;41329;41.594;23.810;2023-07-13T02:26:20;95598.41;;;22.57;62.61
55466;BME280;41329;41.594;23.810;2023-07-13T02:28:45;95606.84;;;22.57;62.58
55466;BME280;41329;41.594;23.810;2023-07-13T02:31:14;95600.44;;;22.57;62.89
55466;BME280;41329;41.594;23.810;2023-07-13T02:33:40;95602.88;;;22.55;63.00
55466;BME280;41329;41.594;23.810;2023-07-13T02:36:05;95612.59;;;22.54;63.24
55466;BME280;41329;41.594;23.810;2023-07-13T02:38:32;95612.25;;;22.52;62.81
55466;BME280;41329;41.594;23.810;2023-07-13T02:40:59;95597.47;;;22.48;62.37
55466;BME280;41329;41.594;23.810;2023-07-13T02:43:24;95603.09;;;22.48;63.12
55466;BME280;41329;41.594;23.810;2023-07-13T02:45:50;95611.13;;;22.49;63.09
55466;BME280;41329;41.594;23.810;2023-07-13T02:48:15;95613.13;;;22.49;63.38
55466;BME280;41329;41.594;23.810;2023-07-13T02:50:41;95617.53;;;22.50;63.23
55466;BME280;41329;41.594;23.810;2023-07-13T02:53:07;95596.09;;;22.36;63.66
55466;BME280;41329;41.594;23.810;2023-07-13T02:55:32;95614.38;;;22.48;63.12
55466;BME280;41329;41.594;23.810;2023-07-13T02:57:57;95591.63;;;22.39;63.53
55466;BME280;41329;41.594;23.810;2023-07-13T03:00:23;95603.13;;;22.44;63.88
55466;BME280;41329;41.594;23.810;2023-07-13T03:02:49;95603.88;;;22.48;63.66
55466;BME280;41329;41.594;23.810;2023-07-13T03:05:16;95604.22;;;22.50;64.04
55466;BME280;41329;41.594;23.810;2023-07-13T03:07:41;95614.38;;;22.48;63.95
55466;BME280;41329;41.594;23.810;2023-07-13T03:10:07;95617.91;;;22.52;64.10
55466;BME280;41329;41.594;23.810;2023-07-13T03:12:33;95611.47;;;22.51;63.50
55466;BME280;41329;41.594;23.810;2023-07-13T03:14:58;95617.09;;;22.51;63.38
55466;BME280;41329;41.594;23.810;2023-07-13T03:17:24;95614.38;;;22.48;62.77
55466;BME280;41329;41.594;23.810;2023-07-13T03:19:49;95620.00;;;22.48;62.93
55466;BME280;41329;41.594;23.810;2023-07-13T03:22:19;95615.22;;;22.45;63.59
55466;BME280;41329;41.594;23.810;2023-07-13T03:24:45;95615.22;;;22.45;64.10
55466;BME280;41329;41.594;23.810;2023-07-13T03:27:10;95619.53;;;22.33;63.87
55466;BME280;41329;41.594;23.810;2023-07-13T03:29:36;95628.88;;;22.30;64.05
55466;BME280;41329;41.594;23.810;2023-07-13T03:32:01;95631.69;;;22.30;64.02
55466;BME280;41329;41.594;23.810;2023-07-13T03:34:27;95644.28;;;22.26;63.39
55466;BME280;41329;41.594;23.810;2023-07-13T03:36:55;95634.94;;;22.13;63.79
55466;BME280;41329;41.594;23.810;2023-07-13T03:39:20;95622.50;;;21.94;64.16
55466;BME280;41329;41.594;23.810;2023-07-13T03:41:46;95633.50;;;22.05;64.67
55466;BME280;41329;41.594;23.810;2023-07-13T03:44:12;95635.63;;;22.01;64.91
55466;BME280;41329;41.594;23.810;2023-07-13T03:46:37;95625.22;;;21.82;65.23
55466;BME280;41329;41.594;23.810;2023-07-13T03:49:04;95639.81;;;21.77;65.23
55466;BME280;41329;41.594;23.810;2023-07-13T03:51:30;95633.03;;;21.55;66.11
55466;BME280;41329;41.594;23.810;2023-07-13T03:53:56;95641.19;;;21.49;66.52
55466;BME280;41329;41.594;23.810;2023-07-13T03:56:21;95615.28;;;21.38;66.91
55466;BME280;41329;41.594;23.810;2023-07-13T03:58:48;95636.28;;;21.53;67.03
55466;BME280;41329;41.594;23.810;2023-07-13T04:01:16;95631.38;;;21.57;67.49
55466;BME280;41329;41.594;23.810;2023-07-13T04:03:42;95639.03;;;21.57;67.41
55466;BME280;41329;41.594;23.810;2023-07-13T04:06:13;95636.06;;;21.64;67.00
55466;BME280;41329;41.594;23.810;2023-07-13T04:08:40;95645.66;;;21.66;67.35
55466;BME280;41329;41.594;23.810;2023-07-13T04:11:06;95642.41;;;21.68;67.28
55466;BME280;41329;41.594;23.810;2023-07-13T04:13:31;95647.47;;;21.76;66.86
55466;BME280;41329;41.594;23.810;2023-07-13T04:15:57;95635.84;;;21.74;66.42
55466;BME280;41329;41.594;23.810;2023-07-13T04:18:22;95641.31;;;21.81;66.73
55466;BME280;41329;41.594;23.810;2023-07-13T04:20:49;95645.56;;;21.89;66.94
55466;BME280;41329;41.594;23.810;2023-07-13T04:23:15;95638.63;;;21.94;67.11
55466;BME280;41329;41.594;23.810;2023-07-13T04:25:44;95646.88;;;22.01;66.75
55466;BME280;41329;41.594;23.810;2023-07-13T04:28:10;95653.69;;;22.03;66.37
55466;BME280;41329;41.594;23.810;2023-07-13T04:30:35;95640.81;;;22.02;66.83
55466;BME280;41329;41.594;23.810;2023-07-13T04:33:01;95636.78;;;22.03;66.64
55466;BME280;41329;41.594;23.810;2023-07-13T04:35:26;95639.78;;;22.12;66.96
55466;BME280;41329;41.594;23.810;2023-07-13T04:37:52;95650.00;;;22.22;66.83
55466;BME280;41329;41.594;23.810;2023-07-13T04:40:18;95652.31;;;22.27;66.57
55466;BME280;41329;41.594;23.810;2023-07-13T04:42:45;95633.47;;;22.24;66.19
55466;BME280;41329;41.594;23.810;2023-07-13T04:45:11;95634.44;;;22.18;66.34
55466;BME280;41329;41.594;23.810;2023-07-13T04:47:36;95647.09;;;22.10;66.37
55466;BME280;41329;41.594;23.810;2023-07-13T04:50:02;95647.59;;;22.05;66.48
55466;BME280;41329;41.594;23.810;2023-07-13T04:52:28;95645.31;;;22.00;67.01
55466;BME280;41329;41.594;23.810;2023-07-13T04:54:53;95653.19;;;22.08;67.00
55466;BME280;41329;41.594;23.810;2023-07-13T04:57:18;95656.72;;;22.12;67.14
55466;BME280;41329;41.594;23.810;2023-07-13T04:59:44;95655.19;;;22.08;67.57
55466;BME280;41329;41.594;23.810;2023-07-13T05:02:10;95660.53;;;22.02;67.80
55466;BME280;41329;41.594;23.810;2023-07-13T05:04:35;95648.47;;;21.86;68.21
55466;BME280;41329;41.594;23.810;2023-07-13T05:07:01;95645.94;;;21.91;68.40
55466;BME280;41329;41.594;23.810;2023-07-13T05:09:26;95662.03;;;21.91;68.81
55466;BME280;41329;41.594;23.810;2023-07-13T05:11:53;95658.88;;;21.89;69.38
55466;BME280;41329;41.594;23.810;2023-07-13T05:14:18;95655.56;;;21.74;69.82
55466;BME280;41329;41.594;23.810;2023-07-13T05:16:43;95649.22;;;21.70;70.39
55466;BME280;41329;41.594;23.810;2023-07-13T05:19:09;95666.66;;;21.81;70.48
55466;BME280;41329;41.594;23.810;2023-07-13T05:21:35;95660.88;;;21.88;70.44
55466;BME280;41329;41.594;23.810;2023-07-13T05:24:00;95666.56;;;22.04;69.99
55466;BME280;41329;41.594;23.810;2023-07-13T05:26:26;95657.41;;;22.16;69.42
55466;BME280;41329;41.594;23.810;2023-07-13T05:28:51;95659.88;;;22.30;69.52
55466;BME280;41329;41.594;23.810;2023-07-13T05:31:17;95664.03;;;22.42;69.00
55466;BME280;41329;41.594;23.810;2023-07-13T05:33:42;95667.03;;;22.35;69.12
55466;BME280;41329;41.594;23.810;2023-07-13T05:36:08;95666.41;;;22.43;68.95
55466;BME280;41329;41.594;23.810;2023-07-13T05:38:34;95656.31;;;22.46;69.18
55466;BME280;41329;41.594;23.810;2023-07-13T05:40:59;95659.13;;;22.62;69.01
55466;BME280;41329;41.594;23.810;2023-07-13T05:43:25;95665.75;;;22.71;68.34
55466;BME280;41329;41.594;23.810;2023-07-13T05:45:55;95662.13;;;22.71;68.19
55466;BME280;41329;41.594;23.810;2023-07-13T05:48:21;95659.28;;;22.71;68.23
55466;BME280;41329;41.594;23.810;2023-07-13T05:50:47;95661.28;;;22.86;67.59
55466;BME280;41329;41.594;23.810;2023-07-13T05:53:15;95668.19;;;22.85;67.34
55466;BME280;41329;41.594;23.810;2023-07-13T05:55:45;95660.97;;;22.68;67.79
55466;BME280;41329;41.594;23.810;2023-07-13T05:58:13;95640.94;;;22.79;67.62
55466;BME280;41329;41.594;23.810;2023-07-13T06:00:38;95664.03;;;22.90;67.73
55466;BME280;41329;41.594;23.810;2023-07-13T06:03:04;95663.03;;;23.13;67.43
55466;BME280;41329;41.594;23.810;2023-07-13T06:05:29;95651.56;;;23.20;66.86
55466;BME280;41329;41.594;23.810;2023-07-13T06:07:55;95658.28;;;23.38;66.78
55466;BME280;41329;41.594;23.810;2023-07-13T06:10:20;95655.03;;;23.40;65.60
55466;BME280;41329;41.594;23.810;2023-07-13T06:12:46;95664.78;;;23.51;65.66
55466;BME280;41329;41.594;23.810;2023-07-13T06:15:11;95659.25;;;23.60;64.82
55466;BME280;41329;41.594;23.810;2023-07-13T06:31:06;95644.97;;;24.92;60.53
55466;BME280;41329;41.594;23.810;2023-07-13T06:33:32;95643.84;;;24.90;60.35
55466;BME280;41329;41.594;23.810;2023-07-13T06:35:58;95645.75;;;24.93;59.67
55466;BME280;41329;41.594;23.810;2023-07-13T06:38:23;95639.63;;;24.94;59.67
55466;BME280;41329;41.594;23.810;2023-07-13T06:40:49;95637.44;;;25.11;58.90
55466;BME280;41329;41.594;23.810;2023-07-13T06:43:14;95629.53;;;25.06;57.49
55466;BME280;41329;41.594;23.810;2023-07-13T06:45:45;95627.47;;;25.06;57.38
55466;BME280;41329;41.594;23.810;2023-07-13T06:48:13;95618.84;;;25.10;56.96
55466;BME280;41329;41.594;23.810;2023-07-13T06:50:38;95618.38;;;25.24;58.02
55466;BME280;41329;41.594;23.810;2023-07-13T06:53:03;95620.03;;;25.34;56.39
55466;BME280;41329;41.594;23.810;2023-07-13T06:55:29;95634.09;;;25.37;57.00
55466;BME280;41329;41.594;23.810;2023-07-13T06:57:54;95633.81;;;25.44;56.73
55466;BME280;41329;41.594;23.810;2023-07-13T07:00:20;95632.63;;;25.54;55.56
55466;BME280;41329;41.594;23.810;2023-07-13T07:02:45;95623.25;;;25.66;56.02
55466;BME280;41329;41.594;23.810;2023-07-13T07:05:10;95611.91;;;25.66;56.86
55466;BME280;41329;41.594;23.810;2023-07-13T07:07:36;95624.66;;;25.83;56.83
55466;BME280;41329;41.594;23.810;2023-07-13T07:10:02;95604.31;;;25.85;55.82
55466;BME280;41329;41.594;23.810;2023-07-13T07:12:28;95617.66;;;25.97;55.40
55466;BME280;41329;41.594;23.810;2023-07-13T07:14:54;95615.47;;;26.01;55.80
55466;BME280;41329;41.594;23.810;2023-07-13T07:17:19;95618.78;;;26.08;55.23
55466;BME280;41329;41.594;23.810;2023-07-13T07:19:45;95609.41;;;26.20;56.21
55466;BME280;41329;41.594;23.810;2023-07-13T07:22:10;95610.72;;;26.37;53.47
55466;BME280;41329;41.594;23.810;2023-07-13T07:24:36;95614.25;;;26.50;53.42
55466;BME280;41329;41.594;23.810;2023-07-13T07:27:01;95613.53;;;26.68;53.23
55466;BME280;41329;41.594;23.810;2023-07-13T07:29:26;95622.06;;;26.77;52.88
55466;BME280;41329;41.594;23.810;2023-07-13T07:31:53;95616.91;;;26.93;52.97
55466;BME280;41329;41.594;23.810;2023-07-13T07:34:19;95611.53;;;26.95;52.40
55466;BME280;41329;41.594;23.810;2023-07-13T07:36:44;95619.94;;;27.08;52.01
55466;BME280;41329;41.594;23.810;2023-07-13T07:39:10;95614.09;;;27.11;52.50
55466;BME280;41329;41.594;23.810;2023-07-13T07:41:35;95605.13;;;27.31;52.86
55466;BME280;41329;41.594;23.810;2023-07-13T07:44:00;95605.44;;;27.51;51.41
55466;BME280;41329;41.594;23.810;2023-07-13T07:46:26;95586.34;;;27.51;50.49
55466;BME280;41329;41.594;23.810;2023-07-13T07:48:51;95611.56;;;27.67;49.71
55466;BME280;41329;41.594;23.810;2023-07-13T07:51:17;95603.81;;;27.77;49.71
55466;BME280;41329;41.594;23.810;2023-07-13T07:53:42;95617.06;;;27.98;50.35
55466;BME280;41329;41.594;23.810;2023-07-13T07:56:07;95615.66;;;28.03;49.40
55466;BME280;41329;41.594;23.810;2023-07-13T07:58:35;95609.88;;;28.21;49.65
55466;BME280;41329;41.594;23.810;2023-07-13T08:01:06;95612.44;;;28.19;46.68
55466;BME280;41329;41.594;23.810;2023-07-13T08:03:32;95611.31;;;28.25;48.00
55466;BME280;41329;41.594;23.810;2023-07-13T08:05:57;95617.25;;;28.45;47.91
55466;BME280;41329;41.594;23.810;2023-07-13T08:08:23;95605.28;;;28.65;47.47
55466;BME280;41329;41.594;23.810;2023-07-13T08:10:49;95596.53;;;28.77;47.52
55466;BME280;41329;41.594;23.810;2023-07-13T08:13:14;95605.94;;;28.92;46.16
55466;BME280;41329;41.594;23.810;2023-07-13T08:15:40;95606.50;;;29.05;46.36
55466;BME280;41329;41.594;23.810;2023-07-13T08:18:06;95592.06;;;29.09;45.24
55466;BME280;41329;41.594;23.810;2023-07-13T08:20:32;95598.81;;;29.35;44.72
55466;BME280;41329;41.594;23.810;2023-07-13T08:22:58;95585.09;;;29.48;44.78
55466;BME280;41329;41.594;23.810;2023-07-13T08:25:24;95574.00;;;29.50;44.71
55466;BME280;41329;41.594;23.810;2023-07-13T08:27:49;95574.03;;;29.64;43.54
55466;BME280;41329;41.594;23.810;2023-07-13T08:30:15;95597.06;;;29.90;43.14
55466;BME280;41329;41.594;23.810;2023-07-13T08:32:40;95595.28;;;30.07;44.11
55466;BME280;41329;41.594;23.810;2023-07-13T08:35:06;95589.13;;;30.23;42.53
55466;BME280;41329;41.594;23.810;2023-07-13T08:37:31;95593.94;;;30.31;43.26
55466;BME280;41329;41.594;23.810;2023-07-13T08:39:57;95586.13;;;30.46;41.90
55466;BME280;41329;41.594;23.810;2023-07-13T08:45:06;95588.72;;;30.30;41.11
55466;BME280;41329;41.594;23.810;2023-07-13T08:47:36;95590.53;;;30.47;42.10
55466;BME280;41329;41.594;23.810;2023-07-13T08:50:04;95550.41;;;30.36;41.84
55466;BME280;41329;41.594;23.810;2023-07-13T08:52:38;95569.25;;;30.63;41.17
55466;BME280;41329;41.594;23.810;2023-07-13T08:55:16;95564.50;;;30.74;40.65
55466;BME280;41329;41.594;23.810;2023-07-13T08:57:47;95578.09;;;30.79;40.30
55466;BME280;41329;41.594;23.810;2023-07-13T09:00:13;95582.94;;;30.93;40.02
55466;BME280;41329;41.594;23.810;2023-07-13T09:02:53;95568.56;;;31.02;38.89
55466;BME280;41329;41.594;23.810;2023-07-13T09:05:38;95572.06;;;31.32;38.71
55466;BME280;41329;41.594;23.810;2023-07-13T09:16:29;95557.59;;;31.61;36.38
55466;BME280;41329;41.594;23.810;2023-07-13T09:19:00;95563.00;;;31.79;36.97
55466;BME280;41329;41.594;23.810;2023-07-13T09:21:33;95513.88;;;31.60;36.30
55466;BME280;41329;41.594;23.810;2023-07-13T09:26:57;95535.31;;;31.96;37.05
55466;BME280;41329;41.594;23.810;2023-07-13T09:29:29;95524.09;;;31.92;37.15
55466;BME280;41329;41.594;23.810;2023-07-13T09:31:57;95533.88;;;31.80;36.71
55466;BME280;41329;41.594;23.810;2023-07-13T09:34:25;95494.22;;;31.73;37.61
55466;BME280;41329;41.594;23.810;2023-07-13T09:36:51;95525.09;;;32.15;38.04
55466;BME280;41329;41.594;23.810;2023-07-13T09:42:22;95505.78;;;32.41;38.29
55466;BME280;41329;41.594;23.810;2023-07-13T09:47:18;95511.06;;;32.90;36.19
55466;BME280;41329;41.594;23.810;2023-07-13T09:49:44;95494.97;;;32.98;34.99
55466;BME280;41329;41.594;23.810;2023-07-13T09:52:12;95497.72;;;32.82;33.78
55466;BME280;41329;41.594;23.810;2023-07-13T09:54:39;95501.56;;;32.73;33.24
55466;BME280;41329;41.594;23.810;2023-07-13T09:57:14;95499.75;;;32.76;35.00
55466;BME280;41329;41.594;23.810;2023-07-13T09:59:43;95498.78;;;32.84;35.94
55466;BME280;41329;41.594;23.810;2023-07-13T10:02:30;95495.22;;;33.00;35.33
55466;BME280;41329;41.594;23.810;2023-07-13T10:05:11;95487.19;;;33.21;35.01
55466;BME280;41329;41.594;23.810;2023-07-13T10:07:43;95494.34;;;33.36;35.18
55466;BME280;41329;41.594;23.810;2023-07-13T10:10:17;95471.06;;;33.29;35.27
55466;BME280;41329;41.594;23.810;2023-07-13T10:12:45;95474.31;;;33.58;36.28
55466;BME280;41329;41.594;23.810;2023-07-13T10:15:37;95483.25;;;33.93;35.69
55466;BME280;41329;41.594;23.810;2023-07-13T10:18:03;95473.06;;;33.98;35.11
55466;BME280;41329;41.594;23.810;2023-07-13T10:20:28;95462.09;;;34.18;36.09
55466;BME280;41329;41.594;23.810;2023-07-13T10:23:00;95466.28;;;34.34;35.43
55466;BME280;41329;41.594;23.810;2023-07-13T10:25:31;95469.38;;;34.52;34.08
55466;BME280;41329;41.594;23.810;2023-07-13T10:28:04;95470.44;;;34.49;34.78
55466;BME280;41329;41.594;23.810;2023-07-13T10:30:35;95466.78;;;34.54;34.43
55466;BME280;41329;41.594;23.810;2023-07-13T10:33:10;95428.13;;;34.44;34.41
55466;BME280;41329;41.594;23.810;2023-07-13T10:35:37;95457.38;;;34.54;33.65
55466;BME280;41329;41.594;23.810;2023-07-13T10:38:11;95453.22;;;34.49;35.61
55466;BME280;41329;41.594;23.810;2023-07-13T10:40:43;95437.72;;;34.74;35.15
55466;BME280;41329;41.594;23.810;2023-07-13T10:43:17;95453.81;;;35.10;34.83
55466;BME280;41329;41.594;23.810;2023-07-13T10:45:46;95425.53;;;35.20;34.31
55466;BME280;41329;41.594;23.810;2023-07-13T10:48:15;95441.13;;;35.41;32.78
55466;BME280;41329;41.594;23.810;2023-07-13T10:50:49;95436.16;;;35.41;33.73
55466;BME280;41329;41.594;23.810;2023-07-13T10:53:29;95425.31;;;35.58;32.90
55466;BME280;41329;41.594;23.810;2023-07-13T10:56:03;95429.13;;;35.72;33.98
55466;BME280;41329;41.594;23.810;2023-07-13T10:58:36;95418.69;;;35.69;32.73
55466;BME280;41329;41.594;23.810;2023-07-13T11:04:01;95420.84;;;35.98;32.47
55466;BME280;41329;41.594;23.810;2023-07-13T11:06:34;95424.28;;;36.20;31.85
55466;BME280;41329;41.594;23.810;2023-07-13T11:11:46;95402.56;;;36.25;31.26
55466;BME280;41329;41.594;23.810;2023-07-13T11:14:35;95411.28;;;36.43;31.88
55466;BME280;41329;41.594;23.810;2023-07-13T11:20:20;95395.84;;;36.11;30.87
55466;BME280;41329;41.594;23.810;2023-07-13T11:25:37;95398.13;;;36.72;30.62
55466;BME280;41329;41.594;23.810;2023-07-13T11:33:27;95394.16;;;37.18;29.69
55466;BME280;41329;41.594;23.810;2023-07-13T11:36:29;95399.63;;;37.40;29.67
55466;BME280;41329;41.594;23.810;2023-07-13T11:39:33;95393.00;;;37.45;28.61
55466;BME280;41329;41.594;23.810;2023-07-13T11:41:57;95373.34;;;37.25;28.25
55466;BME280;41329;41.594;23.810;2023-07-13T11:44:26;95375.91;;;37.28;28.86
55466;BME280;41329;41.594;23.810;2023-07-13T11:46:54;95388.63;;;37.38;29.02
55466;BME280;41329;41.594;23.810;2023-07-13T11:49:23;95380.81;;;37.52;28.73
55466;BME280;41329;41.594;23.810;2023-07-13T11:51:50;95385.72;;;37.57;28.36
55466;BME280;41329;41.594;23.810;2023-07-13T11:56:52;95369.66;;;37.61;27.90
55466;BME280;41329;41.594;23.810;2023-07-13T11:59:18;95367.16;;;37.71;27.29
55466;BME280;41329;41.594;23.810;2023-07-13T12:01:48;95348.59;;;37.66;27.44
55466;BME280;41329;41.594;23.810;2023-07-13T12:04:27;95351.03;;;37.94;27.10
55466;BME280;41329;41.594;23.810;2023-07-13T12:06:58;95352.66;;;38.21;27.73
55466;BME280;41329;41.594;23.810;2023-07-13T12:09:28;95349.59;;;38.58;28.93
55466;BME280;41329;41.594;23.810;2023-07-13T12:25:11;95341.88;;;39.12;25.15
55466;BME280;41329;41.594;23.810;2023-07-13T12:27:37;95332.63;;;39.14;26.79
55466;BME280;41329;41.594;23.810;2023-07-13T12:30:28;95333.50;;;39.35;26.53
55466;BME280;41329;41.594;23.810;2023-07-13T12:33:01;95326.50;;;39.30;25.08
55466;BME280;41329;41.594;23.810;2023-07-13T12:35:29;95330.00;;;39.49;25.32
55466;BME280;41329;41.594;23.810;2023-07-13T12:37:57;95318.22;;;39.68;25.33
55466;BME280;41329;41.594;23.810;2023-07-13T12:40:32;95331.34;;;39.69;24.44
55466;BME280;41329;41.594;23.810;2023-07-13T12:42:58;95311.38;;;39.58;24.19
55466;BME280;41329;41.594;23.810;2023-07-13T12:45:26;95326.41;;;39.56;24.73
55466;BME280;41329;41.594;23.810;2023-07-13T12:48:10;95326.34;;;39.49;24.41
55466;BME280;41329;41.594;23.810;2023-07-13T12:50:40;95319.13;;;39.29;25.45
55466;BME280;41329;41.594;23.810;2023-07-13T12:53:13;95321.38;;;39.23;26.37
55466;BME280;41329;41.594;23.810;2023-07-13T12:55:54;95321.53;;;39.05;26.23
55466;BME280;41329;41.594;23.810;2023-07-13T12:58:29;95311.06;;;39.02;25.60
55466;BME280;41329;41.594;23.810;2023-07-13T13:00:57;95305.09;;;39.00;25.76
55466;BME280;41329;41.594;23.810;2023-07-13T13:03:37;95304.56;;;39.22;25.70
55466;BME280;41329;41.594;23.810;2023-07-13T13:06:22;95299.94;;;39.06;24.49
55466;BME280;41329;41.594;23.810;2023-07-13T13:08:56;95280.28;;;38.65;25.76
55466;BME280;41329;41.594;23.810;2023-07-13T13:11:24;95297.19;;;38.74;26.48
55466;BME280;41329;41.594;23.810;2023-07-13T13:13:50;95294.66;;;38.58;26.71
55466;BME280;41329;41.594;23.810;2023-07-13T13:16:31;95293.31;;;38.59;27.10
55466;BME280;41329;41.594;23.810;2023-07-13T13:19:00;95283.28;;;38.60;27.26
55466;BME280;41329;41.594;23.810;2023-07-13T13:21:28;95268.38;;;38.56;26.33
55466;BME280;41329;41.594;23.810;2023-07-13T13:23:53;95281.28;;;38.42;24.39
55466;BME280;41329;41.594;23.810;2023-07-13T13:26:20;95265.03;;;38.13;23.72
55466;BME280;41329;41.594;23.810;2023-07-13T13:28:46;95271.81;;;38.15;23.01
55466;BME280;41329;41.594;23.810;2023-07-13T13:31:13;95285.94;;;38.06;24.12
55466;BME280;41329;41.594;23.810;2023-07-13T13:33:40;95276.97;;;37.78;24.35
55466;BME280;41329;41.594;23.810;2023-07-13T13:36:22;95282.53;;;37.89;24.95
55466;BME280;41329;41.594;23.810;2023-07-13T13:38:49;95279.25;;;37.98;24.00
55466;BME280;41329;41.594;23.810;2023-07-13T13:41:14;95266.00;;;37.89;24.78
55466;BME280;41329;41.594;23.810;2023-07-13T13:43:41;95287.81;;;38.16;24.98
55466;BME280;41329;41.594;23.810;2023-07-13T13:46:15;95271.50;;;38.32;24.57
55466;BME280;41329;41.594;23.810;2023-07-13T13:48:42;95272.50;;;38.34;24.79
55466;BME280;41329;41.594;23.810;2023-07-13T13:51:19;95266.50;;;38.32;24.70
55466;BME280;41329;41.594;23.810;2023-07-13T13:53:46;95265.59;;;38.24;24.63
55466;BME280;41329;41.594;23.810;2023-07-13T13:56:13;95267.50;;;38.22;24.06
55466;BME280;41329;41.594;23.810;2023-07-13T13:58:39;95250.25;;;38.16;24.88
55466;BME280;41329;41.594;23.810;2023-07-13T14:01:04;95267.19;;;38.38;24.86